Monday, December 18, 2017, 3:35 PM EST
Back to Local

KMRB, Martinsburg Eastern Wv Reg

Location: Martinsburg, WV, United States Lat: 39.4
Local Time: 3:35 PM EST (20:35 GMT) Lon: -77.983
Time Zone: US/Eastern Elev: 557 ft

Show me the last for .
Show Decoded

2017-12-18 14:53 METAR KMRB 181953Z 03005KT 10SM OVC043 11/02 A2997 RMK AO2 SLP153 T01060022 =
2017-12-18 13:53 METAR KMRB 181853Z 23003KT 10SM OVC042 11/03 A2999 RMK AO2 SLP157 T01110028 =
2017-12-18 12:53 METAR KMRB 181753Z VRB03KT 10SM FEW043 11/02 A3000 RMK AO2 SLP160 T01110022
                 10111 20017 58036 =
2017-12-18 11:53 METAR KMRB 181653Z 00000KT 8SM FEW046 09/01 A3002 RMK AO2 SLP170 T00940011 =
2017-12-18 10:53 METAR KMRB 181553Z 00000KT 6SM HZ FEW037 OVC049 06/01 A3009 RMK AO2 SLP192
                 T00610006 =
2017-12-18 09:53 METAR KMRB 181453Z 07003KT 6SM HZ OVC050 04/00 A3011 RMK AO2 SLP199 T00440000
                 57000 =
2017-12-18 08:53 METAR KMRB 181353Z 10003KT 5SM HZ OVC047 03/M01 A3011 RMK AO2 SLP198 T00331006 =
2017-12-18 07:53 METAR KMRB 181253Z 00000KT 5SM HZ OVC050 03/M01 A3011 RMK AO2 SLP199 T00281006 =
2017-12-18 06:53 METAR KMRB 181153Z 00000KT 6SM HZ OVC055 02/M01 A3011 RMK AO2 SLP199 T00171011
                 10039 20017 53003 =
2017-12-18 05:53 METAR KMRB 181053Z AUTO 00000KT 7SM OVC040 02/M01 A3010 RMK AO2 SLP197 T00221006
                 =
2017-12-18 04:53 METAR KMRB 180953Z AUTO 03003KT 7SM OVC060 03/M01 A3010 RMK AO2 SLP195 T00281011
                 =
2017-12-18 03:53 METAR KMRB 180853Z AUTO 00000KT 7SM OVC043 03/M01 A3010 RMK AO2 SLP195 T00331006
                 58002 =
2017-12-18 02:53 METAR KMRB 180753Z AUTO 35003KT 7SM OVC042 03/M01 A3011 RMK AO2 SLP198 T00331006
                 =
2017-12-18 01:53 METAR KMRB 180653Z AUTO 00000KT 7SM OVC044 03/M01 A3010 RMK AO2 SLP196 T00331006
                 =
2017-12-18 00:53 METAR KMRB 180553Z AUTO 00000KT 8SM OVC044 04/00 A3010 RMK AO2 SLP197 T00390000
                 10056 20033 58008 =
2017-12-17 23:53 METAR KMRB 180453Z AUTO 00000KT 7SM OVC048 04/00 A3012 RMK AO2 SLP204 T00390000
                 400831044 =
2017-12-17 22:53 METAR KMRB 180353Z AUTO 00000KT 8SM OVC050 04/00 A3013 RMK AO2 SLP205 T00440000
                 =
2017-12-17 21:53 METAR KMRB 180253Z AUTO 35003KT 9SM BKN065 OVC080 04/00 A3013 RMK AO2 SLP206
                 T00440000 56009 =
2017-12-17 20:53 METAR KMRB 180153Z AUTO 34003KT 9SM OVC095 05/00 A3013 RMK AO2 SLP208 T00500000
                 =
2017-12-17 19:53 METAR KMRB 180053Z AUTO 01004KT 10SM OVC085 05/00 A3015 RMK AO2 SLP214 T00500000
                 =
2017-12-17 18:53 METAR KMRB 172353Z AUTO 35003KT 10SM OVC100 06/M01 A3016 RMK AO2 SLP215
                 T00561006 10083 20050 50003 =
2017-12-17 17:53 METAR KMRB 172253Z AUTO 00000KT 10SM OVC120 06/M01 A3017 RMK AO2 SLP222
                 T00561006 =
2017-12-17 16:53 METAR KMRB 172153Z AUTO 33005KT 10SM OVC090 07/M01 A3017 RMK AO2 SLP219
                 T00671006 =
2017-12-17 15:53 METAR KMRB 172053Z AUTO 08003KT 10SM FEW055 SCT090 OVC110 07/M01 A3015 RMK AO2
                 SLP213 T00721011 55010 =

Support USWX by starting your Amazon purchase here.